Jack Northrop Field Hawthorne Municipal Airport


Codes: KHHR/
Name: Jack Northrop Field Hawthorne Municipal Airport
City: Hawthorne
Country: United States
Elevation: 66 ft.
Wikipedia:

Photos at Jack Northrop Field Hawthorne Municipal Airport


   Photos courtesy of SpottingLog. You can add your own sightings and photos by signing up for a free trial today.



No photos found.

Weather at Jack Northrop Field Hawthorne Municipal Airport


Time (UTC)DescriptionTempratureWindCloud coverageVisibilityPressureHumidity
19-Apr-2024 03:00Clear Sky15°C4 mph, SW0%10000m1013hPa86%
19-Apr-2024 06:00Clear Sky15°C2 mph, S2%10000m1014hPa82%
19-Apr-2024 09:00Scattered Clouds15°C4 mph, S32%10000m1014hPa80%
19-Apr-2024 12:00Broken Clouds15°C4 mph, SE70%10000m1013hPa79%
19-Apr-2024 15:00Few Clouds15°C4 mph, SE17%10000m1015hPa78%
19-Apr-2024 18:00Clear Sky18°C7 mph, S8%10000m1015hPa65%
19-Apr-2024 21:00Broken Clouds19°C11 mph, SW53%10000m1013hPa64%
20-Apr-2024 00:00Scattered Clouds17°C11 mph, SW35%10000m1013hPa71%
20-Apr-2024 03:00Clear Sky16°C7 mph, SW6%10000m1013hPa74%
20-Apr-2024 06:00Clear Sky16°C4 mph, S3%10000m1014hPa74%
20-Apr-2024 09:00Clear Sky15°C4 mph, S0%10000m1014hPa78%
20-Apr-2024 12:00Clear Sky15°C4 mph, S0%10000m1015hPa79%
20-Apr-2024 15:00Clear Sky15°C4 mph, SE7%10000m1017hPa79%
20-Apr-2024 18:00Clear Sky18°C7 mph, SE8%10000m1017hPa65%
20-Apr-2024 21:00Clear Sky19°C9 mph, SW1%10000m1016hPa61%
21-Apr-2024 00:00Clear Sky18°C9 mph, SW1%10000m1015hPa64%
21-Apr-2024 03:00Clear Sky17°C7 mph, SW3%10000m1016hPa76%
21-Apr-2024 06:00Clear Sky16°C4 mph, SW2%10000m1016hPa77%
21-Apr-2024 09:00Clear Sky16°C0 mph, SE1%10000m1015hPa76%
21-Apr-2024 12:00Clear Sky16°C4 mph, SW3%10000m1014hPa78%
21-Apr-2024 15:00Clear Sky16°C2 mph, W5%10000m1015hPa78%
21-Apr-2024 18:00Clear Sky20°C4 mph, SW3%10000m1014hPa60%
21-Apr-2024 21:00Clear Sky21°C11 mph, SW3%10000m1013hPa57%
22-Apr-2024 00:00Clear Sky19°C11 mph, SW3%10000m1011hPa63%
22-Apr-2024 03:00Clear Sky17°C7 mph, SW0%10000m1011hPa73%
22-Apr-2024 06:00Clear Sky17°C4 mph, SW0%10000m1012hPa74%
22-Apr-2024 09:00Clear Sky16°C4 mph, S0%10000m1011hPa79%
22-Apr-2024 12:00Clear Sky16°C4 mph, SE0%10000m1011hPa83%
22-Apr-2024 15:00Clear Sky16°C4 mph, SE8%10000m1012hPa79%
22-Apr-2024 18:00Few Clouds18°C7 mph, S23%10000m1012hPa67%
22-Apr-2024 21:00Broken Clouds19°C11 mph, SW60%10000m1011hPa64%
23-Apr-2024 00:00Scattered Clouds18°C11 mph, SW43%10000m1011hPa69%
23-Apr-2024 03:00Few Clouds15°C9 mph, SW19%10000m1011hPa80%
23-Apr-2024 06:00Scattered Clouds15°C4 mph, SW33%10000m1013hPa78%
23-Apr-2024 09:00Light Rain15°C4 mph, SW69%10000m1013hPa75%
23-Apr-2024 12:00Broken Clouds15°C2 mph, S84%10000m1013hPa72%
23-Apr-2024 15:00Overcast Clouds15°C4 mph, S100%10000m1015hPa67%
23-Apr-2024 18:00Overcast Clouds16°C7 mph, S100%10000m1015hPa63%
23-Apr-2024 21:00Few Clouds17°C11 mph, SW17%10000m1015hPa57%
24-Apr-2024 00:00Clear Sky16°C13 mph, SW8%10000m1014hPa61%